Time;durP1;ratioP1;P1;durP2;ratioP2;P2;SDS_P1;SDS_P2;PMS_P1;PMS_P2;Temp;Humidity;BMP_temperature;BMP_pressure;BME280_temperature;BME280_humidity;BME280_pressure;Samples;Min_cycle;Max_cycle;Signal;HPM_P1;HPM_P2
2023/10/14 00:01:13;;;;;;;2.92;0.90;;;14.10;99.90;;;;;;4956314;28;20403;-84
2023/10/14 00:03:49;;;;;;;2.67;0.85;;;14.20;99.90;;;;;;4972458;28;20125;-84
2023/10/14 00:06:17;;;;;;;2.78;0.63;;;14.20;99.90;;;;;;4974382;28;20070;-85
2023/10/14 00:11:23;;;;;;;2.55;0.98;;;14.10;99.90;;;;;;4974153;28;20046;-88
2023/10/14 00:13:49;;;;;;;4.35;1.15;;;14.10;99.90;;;;;;4958048;28;20068;-83
2023/10/14 00:16:42;;;;;;;3.20;1.10;;;14.10;99.90;;;;;;4974250;28;20099;-84
2023/10/14 00:19:09;;;;;;;2.42;0.80;;;14.10;99.90;;;;;;4972357;28;20051;-86
2023/10/14 00:21:36;;;;;;;5.60;1.05;;;14.00;99.90;;;;;;4973340;28;20039;-84
2023/10/14 00:24:06;;;;;;;6.65;1.17;;;14.00;99.90;;;;;;4953446;28;20038;-84
2023/10/14 00:26:33;;;;;;;3.58;1.33;;;14.00;99.90;;;;;;4945140;28;20058;-85
2023/10/14 00:29:20;;;;;;;3.80;1.48;;;13.90;99.90;;;;;;4973981;28;20051;-85
2023/10/14 00:31:47;;;;;;;5.30;1.60;;;13.90;99.90;;;;;;4964478;28;20133;-83
2023/10/14 00:34:24;;;;;;;7.60;1.60;;;13.90;99.90;;;;;;4988090;28;20568;-83
2023/10/14 00:36:52;;;;;;;4.93;1.35;;;13.80;99.90;;;;;;4954933;28;20039;-84
2023/10/14 00:39:24;;;;;;;2.58;1.25;;;13.80;99.90;;;;;;4970578;28;20125;-82
2023/10/14 00:41:50;;;;;;;5.70;1.48;;;13.70;99.90;;;;;;4954771;28;20043;-83
2023/10/14 00:44:21;;;;;;;4.13;1.33;;;13.60;99.90;;;;;;4973693;28;20587;-82
2023/10/14 00:46:48;;;;;;;4.63;1.20;;;13.60;99.90;;;;;;4954972;28;20042;-83
2023/10/14 00:49:19;;;;;;;4.78;1.58;;;13.50;99.90;;;;;;4956431;28;20042;-84
2023/10/14 00:51:49;;;;;;;8.63;1.60;;;13.40;99.90;;;;;;4968409;28;20520;-81
2023/10/14 00:57:00;;;;;;;6.13;1.30;;;13.30;99.90;;;;;;4974014;28;20068;-82
2023/10/14 00:59:28;;;;;;;6.43;1.58;;;13.30;99.90;;;;;;4957772;28;20607;-82
2023/10/14 01:01:58;;;;;;;5.22;1.70;;;13.30;99.90;;;;;;4957827;28;20376;-82
2023/10/14 01:04:32;;;;;;;4.82;1.25;;;13.30;99.90;;;;;;4958554;28;20046;-83
2023/10/14 01:12:05;;;;;;;7.63;2.13;;;13.10;99.90;;;;;;4971109;28;20043;-82
2023/10/14 01:14:33;;;;;;;6.45;1.88;;;13.10;99.90;;;;;;4956213;28;20094;-85
2023/10/14 01:16:59;;;;;;;10.35;2.05;;;13.10;99.90;;;;;;4964175;28;20047;-87
2023/10/14 01:19:28;;;;;;;8.38;1.90;;;13.10;99.90;;;;;;4956323;28;20039;-82
2023/10/14 01:21:53;;;;;;;6.93;1.88;;;13.00;99.90;;;;;;4972767;28;20547;-82
2023/10/14 01:24:21;;;;;;;5.45;1.98;;;13.00;99.90;;;;;;4955128;28;20039;-82
2023/10/14 01:26:56;;;;;;;6.30;1.80;;;13.00;99.90;;;;;;4956648;28;20034;-81
2023/10/14 01:29:30;;;;;;;7.55;1.90;;;12.90;99.90;;;;;;4970176;28;20094;-82
2023/10/14 01:33:12;;;;;;;8.45;2.10;;;12.90;99.90;;;;;;4956109;28;20045;-82
2023/10/14 01:37:55;;;;;;;10.13;2.40;;;12.80;99.90;;;;;;4971061;28;20042;-84
2023/10/14 01:42:48;;;;;;;8.02;2.22;;;12.70;99.90;;;;;;4973854;28;20052;-83
2023/10/14 01:45:21;;;;;;;8.88;2.28;;;12.70;99.90;;;;;;4957067;28;20109;-86
2023/10/14 01:47:57;;;;;;;7.22;2.10;;;12.70;99.90;;;;;;4966860;28;20049;-82
2023/10/14 01:50:22;;;;;;;10.88;2.25;;;12.60;99.90;;;;;;4948323;28;20159;-82
2023/10/14 01:52:52;;;;;;;9.52;2.08;;;12.60;99.90;;;;;;4956888;28;20130;-82
2023/10/14 01:55:20;;;;;;;12.52;2.10;;;12.50;99.90;;;;;;4946604;29;20039;-82
2023/10/14 01:57:47;;;;;;;6.00;2.00;;;12.50;99.90;;;;;;4971096;28;20039;-82
2023/10/14 02:00:36;;;;;;;8.00;2.30;;;12.50;99.90;;;;;;4972833;28;20039;-82
2023/10/14 02:03:06;;;;;;;10.00;2.35;;;12.40;99.90;;;;;;4972411;28;20042;-83
2023/10/14 02:05:39;;;;;;;7.72;2.17;;;12.40;99.90;;;;;;4953979;28;20051;-82
2023/10/14 02:08:16;;;;;;;7.70;1.92;;;12.30;99.90;;;;;;4972262;28;20870;-82
2023/10/14 02:10:53;;;;;;;11.68;2.63;;;12.30;99.90;;;;;;4953680;28;20057;-82
2023/10/14 02:13:22;;;;;;;7.93;1.73;;;12.30;99.90;;;;;;4956346;28;20585;-82
2023/10/14 02:15:52;;;;;;;9.07;2.10;;;12.30;99.90;;;;;;4972336;28;20038;-83
2023/10/14 02:18:23;;;;;;;15.00;2.60;;;12.20;99.90;;;;;;4972342;28;20034;-83
2023/10/14 02:21:05;;;;;;;10.27;2.20;;;12.20;99.90;;;;;;4952561;28;20031;-83
2023/10/14 02:23:45;;;;;;;10.85;2.33;;;12.20;99.90;;;;;;4962507;28;20478;-82
2023/10/14 02:26:39;;;;;;;6.95;2.25;;;12.20;99.90;;;;;;4965838;28;20047;-82
2023/10/14 02:29:11;;;;;;;9.93;2.03;;;12.10;99.90;;;;;;4953657;29;20074;-84
2023/10/14 02:31:37;;;;;;;6.97;2.08;;;12.10;99.90;;;;;;4955465;28;20411;-83
2023/10/14 02:34:05;;;;;;;9.05;2.08;;;12.00;99.90;;;;;;4972043;28;20046;-83
2023/10/14 02:36:35;;;;;;;8.35;2.17;;;12.00;99.90;;;;;;4968681;28;20047;-82
2023/10/14 02:39:12;;;;;;;8.82;2.30;;;12.00;99.90;;;;;;4939634;29;20035;-83
2023/10/14 02:41:40;;;;;;;12.23;2.60;;;11.90;99.90;;;;;;4939784;28;20045;-83
2023/10/14 02:46:46;;;;;;;10.50;2.33;;;11.80;99.90;;;;;;4972027;28;20050;-83
2023/10/14 02:49:18;;;;;;;7.25;2.38;;;11.70;99.90;;;;;;4956202;28;20104;-83
2023/10/14 02:51:45;;;;;;;;;;;11.70;99.90;;;;;;4972879;28;20718;-82
2023/10/14 02:54:15;;;;;;;9.85;2.38;;;11.60;99.90;;;;;;4955912;28;19922;-84
2023/10/14 02:57:13;;;;;;;8.90;2.42;;;11.60;99.90;;;;;;4955018;28;20043;-83
2023/10/14 03:04:44;;;;;;;;;;;11.50;99.90;;;;;;4972811;28;20050;-83
2023/10/14 03:07:10;;;;;;;9.40;2.05;;;11.50;99.90;;;;;;4955871;28;19921;-82
2023/10/14 03:09:35;;;;;;;10.10;2.65;;;11.50;99.90;;;;;;4955997;28;20045;-83
2023/10/14 03:12:01;;;;;;;7.93;2.42;;;11.40;99.90;;;;;;4972719;28;20035;-82
2023/10/14 03:14:30;;;;;;;10.13;2.10;;;11.40;99.90;;;;;;4957819;28;20181;-83
2023/10/14 03:16:57;;;;;;;10.80;2.20;;;11.40;99.90;;;;;;4952591;28;20134;-83
2023/10/14 03:19:25;;;;;;;13.45;2.58;;;11.40;99.90;;;;;;4952618;28;20031;-83
2023/10/14 03:21:58;;;;;;;11.13;2.58;;;11.40;99.90;;;;;;4950550;28;20089;-83
2023/10/14 03:24:32;;;;;;;7.95;2.60;;;11.30;99.90;;;;;;4971450;28;20038;-83
2023/10/14 03:27:04;;;;;;;10.50;2.50;;;11.20;99.90;;;;;;4955734;28;20039;-82
2023/10/14 03:29:31;;;;;;;9.55;2.35;;;11.30;99.90;;;;;;4955617;28;20494;-83
2023/10/14 03:31:57;;;;;;;9.18;2.33;;;11.20;99.90;;;;;;4965512;28;20050;-84
2023/10/14 03:34:29;;;;;;;7.68;1.92;;;11.20;99.90;;;;;;4960291;28;20052;-84
2023/10/14 03:37:00;;;;;;;10.27;2.40;;;11.20;99.90;;;;;;4952532;28;20047;-82
2023/10/14 03:39:46;;;;;;;7.20;2.22;;;11.10;99.90;;;;;;4951533;28;20046;-83
2023/10/14 03:42:13;;;;;;;8.98;2.35;;;11.10;99.90;;;;;;4975207;28;20675;-84
2023/10/14 03:44:42;;;;;;;12.68;2.22;;;11.10;99.90;;;;;;4959591;28;20038;-83
2023/10/14 03:47:14;;;;;;;10.27;2.40;;;11.10;99.90;;;;;;4973012;28;20135;-83
2023/10/14 03:49:41;;;;;;;8.90;2.35;;;11.00;99.90;;;;;;4959064;28;20122;-83
2023/10/14 03:52:10;;;;;;;8.02;2.13;;;11.00;99.90;;;;;;4974614;28;20038;-84
2023/10/14 03:54:41;;;;;;;11.25;2.58;;;11.00;99.90;;;;;;4955382;28;20043;-83
2023/10/14 03:57:14;;;;;;;9.93;2.13;;;11.00;99.90;;;;;;4970456;28;20121;-83
2023/10/14 03:59:41;;;;;;;10.18;2.42;;;10.90;99.90;;;;;;4970822;28;20137;-83
2023/10/14 04:02:08;;;;;;;15.90;2.30;;;10.90;99.90;;;;;;4975216;28;20030;-84
2023/10/14 04:04:34;;;;;;;9.48;2.38;;;10.80;99.90;;;;;;4955873;28;20147;-82
2023/10/14 04:09:52;;;;;;;8.10;2.50;;;10.80;99.90;;;;;;4971703;28;20039;-82
2023/10/14 04:12:33;;;;;;;6.07;2.67;;;10.70;99.90;;;;;;4972126;28;20574;-83
2023/10/14 04:15:05;;;;;;;9.43;2.10;;;10.70;99.90;;;;;;4959824;28;20078;-82
2023/10/14 04:17:31;;;;;;;12.23;2.55;;;10.60;99.90;;;;;;4952953;28;20122;-84
2023/10/14 04:20:15;;;;;;;12.63;2.42;;;10.70;99.90;;;;;;4974596;28;20117;-84
2023/10/14 04:22:41;;;;;;;7.05;2.40;;;10.60;99.90;;;;;;4958452;28;20403;-84
2023/10/14 04:28:30;;;;;;;8.88;2.15;;;10.60;99.90;;;;;;4974074;28;20090;-83
2023/10/14 04:35:26;;;;;;;11.00;2.20;;;10.50;99.90;;;;;;4973905;28;20039;-85
2023/10/14 04:37:57;;;;;;;12.57;2.42;;;10.60;99.90;;;;;;4973900;28;20454;-85
2023/10/14 04:45:52;;;;;;;12.65;2.63;;;10.50;99.90;;;;;;4974508;28;20057;-85
2023/10/14 04:49:07;;;;;;;8.05;2.65;;;10.50;99.90;;;;;;4957504;28;20051;-85
2023/10/14 04:51:18;;;;;;;14.73;2.63;;;10.50;99.90;;;;;;4977735;28;20097;-84
2023/10/14 04:53:44;;;;;;;12.85;2.70;;;10.40;99.90;;;;;;4968512;28;20054;-85
2023/10/14 04:56:10;;;;;;;7.70;2.38;;;10.40;99.90;;;;;;4957982;28;20117;-84
2023/10/14 04:58:40;;;;;;;12.20;2.95;;;10.40;99.90;;;;;;4975365;28;20118;-85
2023/10/14 05:01:09;;;;;;;10.88;2.13;;;10.40;99.90;;;;;;4956883;28;20039;-85
2023/10/14 05:03:35;;;;;;;6.65;1.80;;;10.40;99.90;;;;;;4957103;28;20494;-83
2023/10/14 05:08:45;;;;;;;10.15;2.60;;;10.30;99.90;;;;;;4973816;28;20053;-85
2023/10/14 05:11:18;;;;;;;11.77;2.42;;;10.30;99.90;;;;;;4969367;28;20074;-85
2023/10/14 05:14:45;;;;;;;8.45;2.13;;;10.30;99.90;;;;;;4948965;28;20130;-85
2023/10/14 05:16:54;;;;;;;8.38;1.88;;;10.20;99.90;;;;;;4969154;28;20171;-86
2023/10/14 05:19:24;;;;;;;10.80;2.30;;;10.20;99.90;;;;;;4974267;28;20078;-85
2023/10/14 05:22:24;;;;;;;9.82;2.00;;;10.30;99.90;;;;;;4975105;28;20046;-85
2023/10/14 05:24:48;;;;;;;8.48;1.90;;;10.20;99.90;;;;;;4972731;28;20098;-85
2023/10/14 05:27:19;;;;;;;8.93;1.90;;;10.20;99.90;;;;;;4975668;28;20129;-84
2023/10/14 05:29:51;;;;;;;10.25;2.10;;;10.20;99.90;;;;;;4957196;28;20047;-84
2023/10/14 05:32:24;;;;;;;8.85;2.13;;;10.20;99.90;;;;;;4972913;28;20077;-85
2023/10/14 05:34:53;;;;;;;13.38;2.38;;;10.20;99.90;;;;;;4973371;28;20146;-86
2023/10/14 05:37:21;;;;;;;11.60;2.13;;;10.20;99.90;;;;;;4957001;28;20042;-85
2023/10/14 05:39:47;;;;;;;14.07;2.30;;;10.20;99.90;;;;;;4957618;28;20047;-85
2023/10/14 05:42:16;;;;;;;11.30;2.40;;;10.10;99.90;;;;;;4973490;28;20042;-86
2023/10/14 05:44:47;;;;;;;10.20;2.50;;;10.10;99.90;;;;;;4957230;28;20642;-84
2023/10/14 05:47:14;;;;;;;9.85;2.33;;;10.10;99.90;;;;;;4954603;28;20031;-85
2023/10/14 05:49:40;;;;;;;18.02;2.88;;;10.10;99.90;;;;;;4957040;28;20499;-86
2023/10/14 05:52:06;;;;;;;14.23;2.40;;;10.10;99.90;;;;;;4956813;28;20058;-85
2023/10/14 05:54:32;;;;;;;11.60;2.42;;;10.10;99.90;;;;;;4957161;28;20054;-84
2023/10/14 05:56:57;;;;;;;11.63;2.47;;;10.10;99.90;;;;;;4952455;29;20119;-86
2023/10/14 05:59:23;;;;;;;8.63;2.55;;;10.10;99.90;;;;;;4953204;28;20034;-83
2023/10/14 06:01:49;;;;;;;9.93;2.43;;;10.10;99.90;;;;;;4956493;28;20046;-84
2023/10/14 06:04:15;;;;;;;12.82;2.42;;;10.10;99.90;;;;;;4968923;28;20038;-84
2023/10/14 06:06:42;;;;;;;13.20;2.67;;;10.10;99.90;;;;;;4969873;28;20046;-85
2023/10/14 06:09:09;;;;;;;11.68;2.25;;;10.10;99.90;;;;;;4938597;28;20412;-84
2023/10/14 06:11:38;;;;;;;12.67;2.60;;;10.10;99.90;;;;;;4939902;28;20742;-82
2023/10/14 06:14:05;;;;;;;11.63;2.63;;;10.10;99.90;;;;;;4955887;28;20050;-82
2023/10/14 06:16:31;;;;;;;9.70;2.20;;;10.10;99.90;;;;;;4965816;28;20046;-83
2023/10/14 06:18:59;;;;;;;12.45;2.67;;;10.10;99.90;;;;;;4952116;28;20055;-84
2023/10/14 06:21:28;;;;;;;10.73;2.57;;;10.10;99.90;;;;;;4951716;28;20043;-84
2023/10/14 06:23:54;;;;;;;10.40;2.40;;;10.10;99.90;;;;;;4965368;28;20175;-84
2023/10/14 06:26:20;;;;;;;9.37;2.50;;;10.10;99.90;;;;;;4950833;28;20043;-85
2023/10/14 06:28:48;;;;;;;12.80;2.85;;;10.10;99.90;;;;;;4956901;28;20046;-83
2023/10/14 06:31:14;;;;;;;12.77;2.60;;;10.10;99.90;;;;;;4956267;28;20046;-84
2023/10/14 06:33:40;;;;;;;13.43;2.67;;;10.10;99.90;;;;;;4955848;28;20042;-84
2023/10/14 06:36:10;;;;;;;9.98;2.55;;;10.10;99.90;;;;;;4955309;28;20045;-86
2023/10/14 06:38:40;;;;;;;12.03;3.10;;;10.20;99.90;;;;;;4960857;28;20688;-84
2023/10/14 06:41:11;;;;;;;11.32;2.88;;;10.20;99.90;;;;;;4971309;28;20039;-85
2023/10/14 06:43:38;;;;;;;13.77;2.83;;;10.20;99.90;;;;;;4956591;28;20053;-85
2023/10/14 06:46:05;;;;;;;12.50;2.80;;;10.30;99.90;;;;;;4953598;28;20602;-85
2023/10/14 06:48:33;;;;;;;10.43;2.63;;;10.30;99.90;;;;;;4971870;28;20043;-85
2023/10/14 06:50:59;;;;;;;11.80;2.97;;;10.30;99.90;;;;;;4971751;28;20059;-84
2023/10/14 06:53:28;;;;;;;8.90;2.60;;;10.40;99.90;;;;;;4971762;28;20059;-84
2023/10/14 06:55:54;;;;;;;12.65;2.88;;;10.40;99.90;;;;;;4972573;28;20043;-85
2023/10/14 06:58:21;;;;;;;9.40;2.20;;;10.50;99.90;;;;;;4966499;28;20034;-84
2023/10/14 07:00:51;;;;;;;13.53;2.70;;;10.50;99.90;;;;;;4972464;28;20053;-84
2023/10/14 07:03:17;;;;;;;12.27;2.40;;;10.50;99.90;;;;;;4954716;28;20039;-84
2023/10/14 07:05:48;;;;;;;11.65;2.72;;;10.60;99.90;;;;;;4971172;28;20053;-85
2023/10/14 07:08:15;;;;;;;10.80;2.57;;;10.60;99.90;;;;;;4951679;28;20047;-86
2023/10/14 07:10:41;;;;;;;12.80;2.60;;;10.70;99.90;;;;;;4943571;28;20797;-85
2023/10/14 07:13:08;;;;;;;9.15;2.58;;;10.70;99.90;;;;;;4972402;28;20038;-86
2023/10/14 07:15:38;;;;;;;14.20;2.90;;;10.80;99.90;;;;;;4956680;28;20131;-86
2023/10/14 07:18:05;;;;;;;13.05;2.60;;;10.80;99.90;;;;;;4955304;28;20077;-86
2023/10/14 07:20:31;;;;;;;11.05;2.88;;;10.90;99.90;;;;;;4972418;28;20043;-85
2023/10/14 07:23:01;;;;;;;11.43;2.67;;;10.90;99.90;;;;;;4972164;28;20050;-86
2023/10/14 07:25:32;;;;;;;16.08;3.30;;;10.90;99.90;;;;;;4955143;28;21404;-86
2023/10/14 07:27:59;;;;;;;10.48;2.50;;;11.00;99.90;;;;;;4956274;28;20101;-85
2023/10/14 07:30:27;;;;;;;11.82;2.47;;;11.00;99.90;;;;;;4988323;28;20055;-88
2023/10/14 07:32:54;;;;;;;13.52;2.78;;;11.10;99.90;;;;;;4955876;28;20042;-86
2023/10/14 07:35:21;;;;;;;10.77;2.70;;;11.10;99.90;;;;;;4954936;28;20051;-84
2023/10/14 07:37:49;;;;;;;12.70;2.53;;;11.20;99.90;;;;;;4940054;28;20030;-87
2023/10/14 07:40:27;;;;;;;12.90;2.88;;;11.30;99.90;;;;;;4971566;28;20054;-84
2023/10/14 07:42:53;;;;;;;11.88;2.45;;;11.30;99.90;;;;;;4954850;28;20562;-87
2023/10/14 07:45:21;;;;;;;12.13;2.55;;;11.40;99.90;;;;;;4955532;28;20074;-87
2023/10/14 07:47:48;;;;;;;14.65;2.97;;;11.50;99.90;;;;;;4955633;28;20038;-86
2023/10/14 07:50:15;;;;;;;14.57;2.53;;;11.50;99.90;;;;;;4971705;28;20605;-86
2023/10/14 07:52:41;;;;;;;11.18;2.35;;;11.60;99.90;;;;;;4955595;28;20085;-86
2023/10/14 07:55:15;;;;;;;9.02;2.20;;;11.60;99.90;;;;;;4955131;28;20130;-86
2023/10/14 07:57:41;;;;;;;16.58;2.78;;;11.70;99.90;;;;;;4971342;28;20043;-87
2023/10/14 08:00:14;;;;;;;10.75;2.70;;;11.80;99.90;;;;;;4955411;28;20125;-82
2023/10/14 08:02:42;;;;;;;13.02;2.70;;;11.90;99.90;;;;;;4955340;28;20051;-88
2023/10/14 08:05:10;;;;;;;14.13;2.65;;;11.90;99.90;;;;;;4955201;28;20442;-86
2023/10/14 08:07:45;;;;;;;10.90;2.50;;;12.00;99.90;;;;;;4971595;28;20054;-85
2023/10/14 08:10:18;;;;;;;10.77;2.72;;;12.00;99.90;;;;;;4955526;28;20053;-87
2023/10/14 08:12:47;;;;;;;11.27;2.70;;;12.10;99.90;;;;;;4955559;28;20519;-84
2023/10/14 08:15:19;;;;;;;9.95;2.10;;;12.20;99.90;;;;;;4936162;29;20074;-84
2023/10/14 08:17:45;;;;;;;;;;;12.30;99.90;;;;;;4955273;28;20113;-86
2023/10/14 08:20:18;;;;;;;10.18;2.28;;;12.30;99.90;;;;;;4958405;28;19925;-86
2023/10/14 08:22:46;;;;;;;14.52;2.30;;;12.40;99.90;;;;;;4929649;28;20094;-86
2023/10/14 08:25:12;;;;;;;8.68;2.15;;;12.50;99.90;;;;;;4956340;29;20039;-85
2023/10/14 08:27:40;;;;;;;9.50;2.70;;;12.60;99.90;;;;;;4969646;28;20039;-87
2023/10/14 08:30:12;;;;;;;10.30;2.42;;;12.60;99.90;;;;;;4958827;28;20475;-85
2023/10/14 08:32:42;;;;;;;11.45;2.78;;;12.70;99.90;;;;;;4952101;29;20515;-84
2023/10/14 08:35:15;;;;;;;9.80;2.08;;;12.80;99.90;;;;;;4969366;28;20042;-86
2023/10/14 08:37:49;;;;;;;17.50;2.47;;;12.90;99.90;;;;;;4958780;28;20042;-86
2023/10/14 08:40:20;;;;;;;9.98;2.47;;;13.00;99.90;;;;;;4974789;28;20101;-86
2023/10/14 08:43:05;;;;;;;12.95;2.47;;;13.00;99.90;;;;;;4958662;28;20049;-86
2023/10/14 08:45:36;;;;;;;13.23;3.03;;;13.10;99.90;;;;;;4954872;29;20043;-87
2023/10/14 08:48:03;;;;;;;10.10;2.22;;;13.10;99.90;;;;;;4966342;28;20599;-83
2023/10/14 08:50:31;;;;;;;12.13;2.75;;;13.20;99.90;;;;;;4957989;28;20097;-86
2023/10/14 08:53:02;;;;;;;9.30;2.78;;;13.30;99.90;;;;;;4966719;28;20495;-85
2023/10/14 08:55:29;;;;;;;10.05;2.47;;;13.30;99.90;;;;;;4957962;28;20046;-85
2023/10/14 08:58:01;;;;;;;12.30;2.67;;;13.40;99.90;;;;;;4957813;28;20121;-86
2023/10/14 09:00:29;;;;;;;;;;;13.50;99.90;;;;;;4959607;28;20031;-83
2023/10/14 09:02:56;;;;;;;11.98;1.92;;;13.40;99.90;;;;;;4972239;28;19922;-89
2023/10/14 09:05:23;;;;;;;6.78;1.70;;;13.50;99.90;;;;;;4957921;28;20154;-86
2023/10/14 09:07:50;;;;;;;10.95;2.22;;;13.60;99.90;;;;;;4958008;28;20512;-85
2023/10/14 09:10:20;;;;;;;13.48;2.67;;;13.60;99.90;;;;;;4973110;28;20408;-85
2023/10/14 09:12:53;;;;;;;9.40;2.30;;;13.70;99.90;;;;;;4973707;28;20047;-83
2023/10/14 09:15:21;;;;;;;11.25;2.30;;;13.80;99.90;;;;;;4973909;28;20051;-86
2023/10/14 09:17:47;;;;;;;7.75;1.90;;;13.80;99.90;;;;;;4957958;28;20038;-85
2023/10/14 09:20:36;;;;;;;8.32;2.20;;;13.90;99.90;;;;;;4957914;28;20122;-85
2023/10/14 09:23:39;;;;;;;8.30;2.30;;;13.80;99.90;;;;;;4968907;28;20046;-84
2023/10/14 09:26:05;;;;;;;9.63;2.33;;;13.90;99.90;;;;;;4970843;28;20043;-85
2023/10/14 09:28:40;;;;;;;9.98;2.35;;;13.90;99.90;;;;;;4956303;28;20043;-88
2023/10/14 09:31:08;;;;;;;9.52;2.45;;;14.00;99.90;;;;;;4971194;28;20096;-86
2023/10/14 09:33:43;;;;;;;7.97;2.40;;;14.00;99.90;;;;;;4973208;28;20039;-88
2023/10/14 09:36:11;;;;;;;6.50;2.30;;;14.00;99.90;;;;;;4973240;28;20042;-87
2023/10/14 09:38:39;;;;;;;10.05;2.00;;;14.10;99.90;;;;;;4955805;28;20046;-84
2023/10/14 09:41:10;;;;;;;8.30;2.00;;;14.10;99.90;;;;;;4955930;28;20450;-86
2023/10/14 09:43:42;;;;;;;8.10;1.92;;;14.00;99.90;;;;;;4957884;28;20038;-86
2023/10/14 09:46:11;;;;;;;7.57;1.90;;;13.90;99.90;;;;;;4942183;28;20053;-83
2023/10/14 09:48:37;;;;;;;7.60;2.28;;;13.90;99.90;;;;;;4957503;28;20078;-83
2023/10/14 09:51:08;;;;;;;6.55;1.50;;;13.90;99.90;;;;;;4957357;28;20498;-83
2023/10/14 09:53:37;;;;;;;8.13;2.00;;;14.00;99.90;;;;;;4973528;28;20521;-83
2023/10/14 09:56:11;;;;;;;6.85;2.20;;;14.00;99.90;;;;;;4957337;28;20038;-84
2023/10/14 09:58:41;;;;;;;6.85;1.65;;;14.00;99.90;;;;;;4940745;28;20471;-82
2023/10/14 10:01:11;;;;;;;7.45;1.83;;;14.10;99.90;;;;;;4957019;28;20039;-83
2023/10/14 10:04:05;;;;;;;10.57;2.30;;;14.20;99.90;;;;;;4971721;28;20422;-84
2023/10/14 10:07:04;;;;;;;7.55;2.33;;;14.20;99.90;;;;;;4953926;28;20062;-83
2023/10/14 10:10:01;;;;;;;4.28;1.45;;;14.40;99.90;;;;;;4975663;28;20077;-80
2023/10/14 10:12:33;;;;;;;6.22;1.92;;;14.20;99.90;;;;;;4968160;28;20047;-82
2023/10/14 10:15:03;;;;;;;;;;;13.90;99.90;;;;;;4965632;28;20078;-84
2023/10/14 10:17:30;;;;;;;6.53;1.50;;;13.30;99.90;;;;;;4952219;28;19976;-83
2023/10/14 10:20:17;;;;;;;5.97;1.38;;;12.90;99.90;;;;;;4937608;29;20031;-85
2023/10/14 10:22:55;;;;;;;10.38;2.33;;;12.50;99.90;;;;;;4970050;28;20047;-85
2023/10/14 10:25:47;;;;;;;5.18;2.20;;;12.20;99.90;;;;;;4954198;28;20130;-86
2023/10/14 10:28:27;;;;;;;14.77;2.33;;;12.30;99.90;;;;;;4961860;28;20114;-86
2023/10/14 10:31:09;;;;;;;9.38;2.25;;;12.30;99.90;;;;;;4972754;28;20054;-85
2023/10/14 10:33:55;;;;;;;9.82;2.10;;;12.50;99.90;;;;;;4960932;28;20473;-86
2023/10/14 10:36:32;;;;;;;10.80;2.55;;;12.60;99.90;;;;;;4967180;28;20049;-82
2023/10/14 10:39:16;;;;;;;9.90;2.00;;;12.50;99.90;;;;;;4968188;28;20078;-87
2023/10/14 10:41:43;;;;;;;6.70;1.95;;;12.30;99.90;;;;;;4965418;28;20478;-87
2023/10/14 10:44:11;;;;;;;8.73;2.10;;;12.10;99.90;;;;;;4957317;28;20043;-86
2023/10/14 10:46:41;;;;;;;7.22;1.67;;;11.90;99.90;;;;;;4953694;28;20372;-86
2023/10/14 10:49:11;;;;;;;6.53;1.70;;;11.70;99.90;;;;;;4949882;28;20049;-87
2023/10/14 10:51:50;;;;;;;8.55;2.47;;;11.70;99.90;;;;;;4955749;28;20061;-87
2023/10/14 10:54:16;;;;;;;21.55;18.60;;;11.70;99.90;;;;;;4955347;28;20035;-87
2023/10/14 10:56:43;;;;;;;10.35;2.35;;;11.60;99.90;;;;;;4955961;28;20042;-86
2023/10/14 10:59:09;;;;;;;10.40;2.50;;;11.60;99.90;;;;;;4956429;28;20402;-87
2023/10/14 11:01:35;;;;;;;5.07;1.70;;;11.60;99.90;;;;;;4953018;28;20047;-85
2023/10/14 11:04:08;;;;;;;4.47;1.52;;;11.60;99.90;;;;;;4942123;28;20046;-85
2023/10/14 11:06:37;;;;;;;9.93;1.45;;;11.50;99.90;;;;;;4957786;28;20165;-86
2023/10/14 11:09:03;;;;;;;7.38;1.40;;;11.40;99.90;;;;;;4956605;28;20042;-85
2023/10/14 11:11:33;;;;;;;5.22;1.30;;;11.40;99.90;;;;;;4956775;28;20112;-87
2023/10/14 11:14:00;;;;;;;6.60;1.42;;;11.30;99.90;;;;;;4956852;28;20720;-87
2023/10/14 11:16:28;;;;;;;6.57;1.30;;;11.40;99.90;;;;;;4940290;28;20098;-87
2023/10/14 11:18:54;;;;;;;7.78;1.70;;;11.60;99.90;;;;;;4952599;28;20031;-84
2023/10/14 11:21:22;;;;;;;7.03;1.65;;;11.80;99.90;;;;;;4968755;28;20506;-86
2023/10/14 11:23:52;;;;;;;4.10;1.42;;;11.90;99.90;;;;;;4972086;28;20446;-86
2023/10/14 11:26:19;;;;;;;7.50;1.80;;;12.20;99.90;;;;;;4956155;28;20039;-86
2023/10/14 11:28:45;;;;;;;5.40;1.35;;;12.40;99.90;;;;;;4955671;28;20051;-86
2023/10/14 11:31:12;;;;;;;5.22;1.55;;;12.60;99.90;;;;;;4956548;28;20054;-85
2023/10/14 11:33:38;;;;;;;6.68;1.73;;;12.70;99.90;;;;;;4956083;28;20121;-86
2023/10/14 11:36:05;;;;;;;6.28;1.38;;;12.90;99.90;;;;;;4972301;28;20035;-83
2023/10/14 11:38:32;;;;;;;6.60;1.80;;;13.00;99.90;;;;;;4956001;28;20511;-86
2023/10/14 11:40:58;;;;;;;10.80;2.00;;;12.90;99.90;;;;;;4955757;28;20031;-87
2023/10/14 11:43:24;;;;;;;6.22;1.33;;;12.80;99.90;;;;;;4955680;28;20066;-82
2023/10/14 11:45:52;;;;;;;4.53;1.30;;;12.70;99.90;;;;;;4971493;28;20089;-87
2023/10/14 11:48:30;;;;;;;6.60;1.15;;;12.60;99.90;;;;;;4946587;28;20043;-85
2023/10/14 11:51:03;;;;;;;4.53;0.95;;;12.50;99.90;;;;;;4954612;28;20529;-85
2023/10/14 11:53:32;;;;;;;4.55;1.30;;;12.40;99.90;;;;;;4952140;28;20039;-84
2023/10/14 11:56:00;;;;;;;3.97;1.00;;;12.40;99.90;;;;;;4969690;28;20495;-84
2023/10/14 11:58:27;;;;;;;7.13;1.45;;;12.30;99.90;;;;;;4973358;28;20043;-85
2023/10/14 12:00:54;;;;;;;8.55;1.70;;;12.40;99.90;;;;;;4973661;28;20122;-87
2023/10/14 12:03:19;;;;;;;6.93;1.88;;;12.50;99.90;;;;;;4957195;28;20082;-84
2023/10/14 12:05:45;;;;;;;6.68;1.42;;;12.50;99.90;;;;;;4955217;29;20051;-83
2023/10/14 12:08:11;;;;;;;3.08;1.25;;;12.50;99.90;;;;;;4967404;28;20396;-84
2023/10/14 12:10:37;;;;;;;6.32;1.52;;;12.60;99.90;;;;;;4964855;28;20493;-87
2023/10/14 12:13:03;;;;;;;2.97;1.10;;;12.70;99.90;;;;;;4958845;28;20038;-85
2023/10/14 12:15:35;;;;;;;5.90;1.50;;;12.80;99.90;;;;;;4942605;28;20074;-85
2023/10/14 12:18:01;;;;;;;4.60;1.00;;;13.00;99.90;;;;;;4955412;29;20046;-86
2023/10/14 12:20:29;;;;;;;4.95;1.33;;;13.20;99.90;;;;;;4948440;28;20039;-84
2023/10/14 12:22:55;;;;;;;8.15;1.35;;;13.30;99.90;;;;;;4959032;28;20446;-88
2023/10/14 12:25:21;;;;;;;7.45;1.77;;;13.20;99.90;;;;;;4957211;28;20062;-82
2023/10/14 12:27:48;;;;;;;6.22;1.25;;;13.30;99.90;;;;;;4971433;28;20571;-82
2023/10/14 12:33:22;;;;;;;6.38;1.58;;;13.40;99.90;;;;;;4937618;29;20043;-82
2023/10/14 12:35:54;;;;;;;13.48;3.08;;;13.40;99.90;;;;;;4947886;28;20082;-84
2023/10/14 12:38:22;;;;;;;5.70;1.80;;;13.10;99.90;;;;;;4975206;28;20448;-85
2023/10/14 12:40:49;;;;;;;5.45;1.70;;;12.80;99.90;;;;;;4974402;28;20068;-85
2023/10/14 12:43:27;;;;;;;6.32;1.92;;;12.70;99.90;;;;;;4951948;29;20039;-86
2023/10/14 12:46:19;;;;;;;9.80;1.83;;;12.50;99.90;;;;;;4940556;28;20391;-84
2023/10/14 12:48:50;;;;;;;11.85;2.22;;;12.50;99.90;;;;;;4961504;28;20069;-84
2023/10/14 12:51:18;;;;;;;8.95;2.13;;;12.50;99.90;;;;;;4957295;28;20059;-84
2023/10/14 12:53:47;;;;;;;9.43;1.83;;;12.70;99.90;;;;;;4932473;28;20486;-84
2023/10/14 12:56:20;;;;;;;9.65;2.25;;;12.70;99.90;;;;;;4931337;28;20036;-83
2023/10/14 12:58:48;;;;;;;9.52;2.15;;;12.80;99.90;;;;;;4958388;28;20142;-83
2023/10/14 13:01:22;;;;;;;11.52;2.35;;;13.00;99.90;;;;;;4957630;28;20535;-84
2023/10/14 13:03:52;;;;;;;9.27;2.10;;;13.00;99.90;;;;;;4958073;28;20395;-83
2023/10/14 13:06:23;;;;;;;10.68;2.80;;;13.10;99.90;;;;;;4972468;28;20050;-87
2023/10/14 13:08:53;;;;;;;8.05;2.03;;;13.20;99.90;;;;;;4968810;28;20050;-84
2023/10/14 13:11:20;;;;;;;7.57;2.20;;;13.10;99.90;;;;;;4974053;28;20042;-85
2023/10/14 13:13:50;;;;;;;13.95;2.70;;;13.20;99.90;;;;;;4950693;28;20047;-82
2023/10/14 13:16:26;;;;;;;13.65;2.42;;;13.20;99.90;;;;;;4974195;28;20042;-85
2023/10/14 13:18:56;;;;;;;8.70;2.70;;;13.20;99.90;;;;;;4942104;28;20078;-84
2023/10/14 13:21:28;;;;;;;8.98;2.85;;;13.40;99.90;;;;;;4963028;28;20055;-82
2023/10/14 13:24:04;;;;;;;10.13;2.38;;;13.40;99.90;;;;;;4958006;28;20047;-86
2023/10/14 13:26:30;;;;;;;11.13;2.60;;;13.50;99.90;;;;;;4974363;28;20050;-83
2023/10/14 13:28:56;;;;;;;8.45;2.17;;;13.50;99.90;;;;;;4974108;28;20046;-82
2023/10/14 13:31:24;;;;;;;8.77;2.85;;;13.60;99.90;;;;;;4974022;28;20047;-84
2023/10/14 13:33:50;;;;;;;12.32;2.45;;;13.60;99.90;;;;;;4957612;28;20047;-81
2023/10/14 13:36:16;;;;;;;9.13;2.30;;;13.60;99.90;;;;;;4957848;28;20035;-81
2023/10/14 13:38:43;;;;;;;11.27;2.40;;;13.60;99.90;;;;;;4951719;28;20423;-81
2023/10/14 13:41:13;;;;;;;8.40;2.30;;;13.50;99.90;;;;;;4957587;28;20498;-83
2023/10/14 13:43:39;;;;;;;9.55;2.17;;;13.30;99.90;;;;;;4973887;28;20104;-84
2023/10/14 13:46:06;;;;;;;9.35;2.50;;;13.20;99.90;;;;;;4973181;28;20507;-82